sensor_id;sensor_type;location;lat;lon;timestamp;temperature;humidity
37844;DHT22;63793;57.632;18.292;2023-09-19T00:02:05;17.70;99.90
37844;DHT22;63793;57.632;18.292;2023-09-19T00:04:33;17.70;99.90
37844;DHT22;63793;57.632;18.292;2023-09-19T00:07:00;17.80;99.90
37844;DHT22;63793;57.632;18.292;2023-09-19T00:09:29;17.80;99.90
37844;DHT22;63793;57.632;18.292;2023-09-19T00:11:56;17.80;99.90
37844;DHT22;63793;57.632;18.292;2023-09-19T00:14:25;17.80;99.90
37844;DHT22;63793;57.632;18.292;2023-09-19T00:16:52;17.80;99.90
37844;DHT22;63793;57.632;18.292;2023-09-19T00:19:19;17.90;99.90
37844;DHT22;63793;57.632;18.292;2023-09-19T00:21:46;17.80;99.90
37844;DHT22;63793;57.632;18.292;2023-09-19T00:24:13;17.90;99.90
37844;DHT22;63793;57.632;18.292;2023-09-19T00:26:40;17.90;99.90
37844;DHT22;63793;57.632;18.292;2023-09-19T00:29:07;17.90;99.90
37844;DHT22;63793;57.632;18.292;2023-09-19T00:31:35;17.90;99.90
37844;DHT22;63793;57.632;18.292;2023-09-19T00:34:04;17.90;99.90
37844;DHT22;63793;57.632;18.292;2023-09-19T00:36:32;18.00;99.90
37844;DHT22;63793;57.632;18.292;2023-09-19T00:39:00;18.00;99.90
37844;DHT22;63793;57.632;18.292;2023-09-19T00:41:27;18.00;99.90
37844;DHT22;63793;57.632;18.292;2023-09-19T00:43:56;18.00;99.90
37844;DHT22;63793;57.632;18.292;2023-09-19T00:46:23;18.00;99.90
37844;DHT22;63793;57.632;18.292;2023-09-19T00:48:50;18.00;99.90
37844;DHT22;63793;57.632;18.292;2023-09-19T00:51:17;18.00;99.90
37844;DHT22;63793;57.632;18.292;2023-09-19T00:53:47;18.10;99.90
37844;DHT22;63793;57.632;18.292;2023-09-19T00:56:15;18.10;99.90
37844;DHT22;63793;57.632;18.292;2023-09-19T00:58:47;18.00;99.90
37844;DHT22;63793;57.632;18.292;2023-09-19T01:01:14;18.00;99.90
37844;DHT22;63793;57.632;18.292;2023-09-19T01:03:42;18.10;99.90
37844;DHT22;63793;57.632;18.292;2023-09-19T01:06:12;18.10;99.90
37844;DHT22;63793;57.632;18.292;2023-09-19T01:08:39;18.00;99.90
37844;DHT22;63793;57.632;18.292;2023-09-19T01:11:13;18.00;99.90
37844;DHT22;63793;57.632;18.292;2023-09-19T01:13:58;18.00;99.90
37844;DHT22;63793;57.632;18.292;2023-09-19T01:22:24;18.10;99.90
37844;DHT22;63793;57.632;18.292;2023-09-19T01:25:20;18.10;99.90
37844;DHT22;63793;57.632;18.292;2023-09-19T01:28:53;18.10;99.90
37844;DHT22;63793;57.632;18.292;2023-09-19T01:30:57;18.00;99.90
37844;DHT22;63793;57.632;18.292;2023-09-19T01:33:26;18.10;99.90
37844;DHT22;63793;57.632;18.292;2023-09-19T01:35:53;18.10;99.90
37844;DHT22;63793;57.632;18.292;2023-09-19T01:38:26;18.10;99.90
37844;DHT22;63793;57.632;18.292;2023-09-19T01:41:03;18.10;99.90
37844;DHT22;63793;57.632;18.292;2023-09-19T01:43:38;18.10;99.90
37844;DHT22;63793;57.632;18.292;2023-09-19T01:48:49;18.10;99.90
37844;DHT22;63793;57.632;18.292;2023-09-19T01:51:46;18.10;99.90
37844;DHT22;63793;57.632;18.292;2023-09-19T01:54:19;18.00;99.90
37844;DHT22;63793;57.632;18.292;2023-09-19T01:56:52;18.00;99.90
37844;DHT22;63793;57.632;18.292;2023-09-19T01:59:24;18.00;99.90
37844;DHT22;63793;57.632;18.292;2023-09-19T02:01:54;18.00;99.90
37844;DHT22;63793;57.632;18.292;2023-09-19T02:04:22;18.00;99.90
37844;DHT22;63793;57.632;18.292;2023-09-19T02:06:49;17.90;99.90
37844;DHT22;63793;57.632;18.292;2023-09-19T02:09:16;18.00;99.90
37844;DHT22;63793;57.632;18.292;2023-09-19T02:11:42;18.00;99.90
37844;DHT22;63793;57.632;18.292;2023-09-19T02:14:10;18.00;99.90
37844;DHT22;63793;57.632;18.292;2023-09-19T02:16:36;18.00;99.90
37844;DHT22;63793;57.632;18.292;2023-09-19T02:19:04;18.00;99.90
37844;DHT22;63793;57.632;18.292;2023-09-19T02:21:32;18.10;99.90
37844;DHT22;63793;57.632;18.292;2023-09-19T02:24:00;18.10;99.90
37844;DHT22;63793;57.632;18.292;2023-09-19T02:26:27;18.20;99.90
37844;DHT22;63793;57.632;18.292;2023-09-19T02:28:54;18.20;99.90
37844;DHT22;63793;57.632;18.292;2023-09-19T02:31:22;18.10;99.90
37844;DHT22;63793;57.632;18.292;2023-09-19T02:33:49;18.10;99.90
37844;DHT22;63793;57.632;18.292;2023-09-19T02:36:16;18.10;99.90
37844;DHT22;63793;57.632;18.292;2023-09-19T02:38:44;18.10;99.90
37844;DHT22;63793;57.632;18.292;2023-09-19T02:41:11;18.10;99.90
37844;DHT22;63793;57.632;18.292;2023-09-19T02:43:38;18.10;99.90
37844;DHT22;63793;57.632;18.292;2023-09-19T02:46:06;18.00;99.90
37844;DHT22;63793;57.632;18.292;2023-09-19T02:48:33;18.00;99.90
37844;DHT22;63793;57.632;18.292;2023-09-19T02:51:02;18.00;99.90
37844;DHT22;63793;57.632;18.292;2023-09-19T02:53:32;18.00;99.90
37844;DHT22;63793;57.632;18.292;2023-09-19T02:55:59;18.00;99.90
37844;DHT22;63793;57.632;18.292;2023-09-19T02:58:26;18.00;99.90
37844;DHT22;63793;57.632;18.292;2023-09-19T03:00:54;17.90;99.90
37844;DHT22;63793;57.632;18.292;2023-09-19T03:03:23;17.90;99.90
37844;DHT22;63793;57.632;18.292;2023-09-19T03:05:50;17.90;99.90
37844;DHT22;63793;57.632;18.292;2023-09-19T03:08:20;17.90;99.90
37844;DHT22;63793;57.632;18.292;2023-09-19T03:10:48;17.90;99.90
37844;DHT22;63793;57.632;18.292;2023-09-19T03:13:15;17.90;99.90
37844;DHT22;63793;57.632;18.292;2023-09-19T03:15:43;17.90;99.90
37844;DHT22;63793;57.632;18.292;2023-09-19T03:18:17;17.90;99.90
37844;DHT22;63793;57.632;18.292;2023-09-19T03:20:53;17.90;99.90
37844;DHT22;63793;57.632;18.292;2023-09-19T03:23:22;17.90;99.90
37844;DHT22;63793;57.632;18.292;2023-09-19T03:25:50;17.90;99.90
37844;DHT22;63793;57.632;18.292;2023-09-19T03:28:17;17.90;99.90
37844;DHT22;63793;57.632;18.292;2023-09-19T03:30:44;17.90;99.90
37844;DHT22;63793;57.632;18.292;2023-09-19T03:33:12;17.90;99.90
37844;DHT22;63793;57.632;18.292;2023-09-19T03:35:40;17.90;99.90
37844;DHT22;63793;57.632;18.292;2023-09-19T03:38:08;17.80;99.90
37844;DHT22;63793;57.632;18.292;2023-09-19T03:40:34;17.80;99.90
37844;DHT22;63793;57.632;18.292;2023-09-19T03:43:04;17.80;99.90
37844;DHT22;63793;57.632;18.292;2023-09-19T03:45:31;17.80;99.90
37844;DHT22;63793;57.632;18.292;2023-09-19T03:48:00;17.80;99.90
37844;DHT22;63793;57.632;18.292;2023-09-19T03:50:27;17.90;99.90
37844;DHT22;63793;57.632;18.292;2023-09-19T03:52:57;17.80;99.90
37844;DHT22;63793;57.632;18.292;2023-09-19T03:55:25;17.90;99.90
37844;DHT22;63793;57.632;18.292;2023-09-19T03:57:52;17.90;99.90
37844;DHT22;63793;57.632;18.292;2023-09-19T04:00:19;18.00;99.90
37844;DHT22;63793;57.632;18.292;2023-09-19T04:02:48;18.00;99.90
37844;DHT22;63793;57.632;18.292;2023-09-19T04:05:16;18.00;99.90
37844;DHT22;63793;57.632;18.292;2023-09-19T04:07:43;18.00;99.90
37844;DHT22;63793;57.632;18.292;2023-09-19T04:10:10;18.00;99.90
37844;DHT22;63793;57.632;18.292;2023-09-19T04:12:51;18.00;99.90
37844;DHT22;63793;57.632;18.292;2023-09-19T04:15:18;18.00;99.90
37844;DHT22;63793;57.632;18.292;2023-09-19T04:17:45;18.00;99.90
37844;DHT22;63793;57.632;18.292;2023-09-19T04:20:13;18.00;99.90
37844;DHT22;63793;57.632;18.292;2023-09-19T04:22:40;18.10;99.90
37844;DHT22;63793;57.632;18.292;2023-09-19T04:25:07;18.10;99.90
37844;DHT22;63793;57.632;18.292;2023-09-19T04:27:34;18.10;99.90
37844;DHT22;63793;57.632;18.292;2023-09-19T04:30:01;18.10;99.90
37844;DHT22;63793;57.632;18.292;2023-09-19T04:32:30;18.10;99.90
37844;DHT22;63793;57.632;18.292;2023-09-19T04:34:59;18.10;99.90
37844;DHT22;63793;57.632;18.292;2023-09-19T04:37:29;18.00;99.90
37844;DHT22;63793;57.632;18.292;2023-09-19T04:39:56;18.00;99.90
37844;DHT22;63793;57.632;18.292;2023-09-19T04:42:23;18.00;99.90
37844;DHT22;63793;57.632;18.292;2023-09-19T04:44:51;18.00;99.90
37844;DHT22;63793;57.632;18.292;2023-09-19T04:47:20;17.90;99.90
37844;DHT22;63793;57.632;18.292;2023-09-19T04:49:49;18.00;99.90
37844;DHT22;63793;57.632;18.292;2023-09-19T04:52:16;17.90;99.90
37844;DHT22;63793;57.632;18.292;2023-09-19T04:54:43;17.90;99.90
37844;DHT22;63793;57.632;18.292;2023-09-19T04:57:09;17.90;99.90
37844;DHT22;63793;57.632;18.292;2023-09-19T04:59:36;17.90;99.90
37844;DHT22;63793;57.632;18.292;2023-09-19T05:02:04;17.80;99.90
37844;DHT22;63793;57.632;18.292;2023-09-19T05:04:32;17.90;99.90
37844;DHT22;63793;57.632;18.292;2023-09-19T05:06:59;17.80;99.90
37844;DHT22;63793;57.632;18.292;2023-09-19T05:09:27;17.80;99.90
37844;DHT22;63793;57.632;18.292;2023-09-19T05:11:54;17.80;99.90
37844;DHT22;63793;57.632;18.292;2023-09-19T05:14:23;17.80;99.90
37844;DHT22;63793;57.632;18.292;2023-09-19T05:16:50;17.80;99.90
37844;DHT22;63793;57.632;18.292;2023-09-19T05:19:17;17.80;99.90
37844;DHT22;63793;57.632;18.292;2023-09-19T05:21:44;17.80;99.90
37844;DHT22;63793;57.632;18.292;2023-09-19T05:24:11;17.80;99.90
37844;DHT22;63793;57.632;18.292;2023-09-19T05:26:39;17.80;99.90
37844;DHT22;63793;57.632;18.292;2023-09-19T05:29:06;17.80;99.90
37844;DHT22;63793;57.632;18.292;2023-09-19T05:31:34;17.80;99.90
37844;DHT22;63793;57.632;18.292;2023-09-19T05:34:06;17.80;99.90
37844;DHT22;63793;57.632;18.292;2023-09-19T05:36:33;17.80;99.90
37844;DHT22;63793;57.632;18.292;2023-09-19T05:39:00;17.80;99.90
37844;DHT22;63793;57.632;18.292;2023-09-19T05:41:27;17.80;99.90
37844;DHT22;63793;57.632;18.292;2023-09-19T05:43:54;17.80;99.90
37844;DHT22;63793;57.632;18.292;2023-09-19T05:46:21;17.80;99.90
37844;DHT22;63793;57.632;18.292;2023-09-19T05:48:48;17.80;99.90
37844;DHT22;63793;57.632;18.292;2023-09-19T05:51:16;17.80;99.90
37844;DHT22;63793;57.632;18.292;2023-09-19T05:53:44;17.80;99.90
37844;DHT22;63793;57.632;18.292;2023-09-19T05:56:15;17.80;99.90
37844;DHT22;63793;57.632;18.292;2023-09-19T05:58:41;17.80;99.90
37844;DHT22;63793;57.632;18.292;2023-09-19T06:01:11;17.80;99.90
37844;DHT22;63793;57.632;18.292;2023-09-19T06:03:38;17.80;99.90
37844;DHT22;63793;57.632;18.292;2023-09-19T06:06:05;17.80;99.90
37844;DHT22;63793;57.632;18.292;2023-09-19T06:08:33;17.80;99.90
37844;DHT22;63793;57.632;18.292;2023-09-19T06:11:00;17.80;99.90
37844;DHT22;63793;57.632;18.292;2023-09-19T06:13:30;17.80;99.90
37844;DHT22;63793;57.632;18.292;2023-09-19T06:15:59;17.80;99.90
37844;DHT22;63793;57.632;18.292;2023-09-19T06:18:31;17.80;99.90
37844;DHT22;63793;57.632;18.292;2023-09-19T06:21:00;17.80;99.90
37844;DHT22;63793;57.632;18.292;2023-09-19T06:23:27;17.80;99.90
37844;DHT22;63793;57.632;18.292;2023-09-19T06:25:55;17.80;99.90
37844;DHT22;63793;57.632;18.292;2023-09-19T06:28:23;17.80;99.90
37844;DHT22;63793;57.632;18.292;2023-09-19T06:30:51;17.80;99.90
37844;DHT22;63793;57.632;18.292;2023-09-19T06:33:17;17.80;99.90
37844;DHT22;63793;57.632;18.292;2023-09-19T06:35:47;17.80;99.90
37844;DHT22;63793;57.632;18.292;2023-09-19T06:38:14;17.80;99.90
37844;DHT22;63793;57.632;18.292;2023-09-19T06:40:42;17.80;99.90
37844;DHT22;63793;57.632;18.292;2023-09-19T06:43:10;17.80;99.90
37844;DHT22;63793;57.632;18.292;2023-09-19T06:45:37;17.80;99.90
37844;DHT22;63793;57.632;18.292;2023-09-19T06:48:04;17.90;99.90
37844;DHT22;63793;57.632;18.292;2023-09-19T06:50:32;17.90;99.90
37844;DHT22;63793;57.632;18.292;2023-09-19T06:52:59;17.90;99.90
37844;DHT22;63793;57.632;18.292;2023-09-19T06:55:27;17.90;99.90
37844;DHT22;63793;57.632;18.292;2023-09-19T06:57:55;17.90;99.90
37844;DHT22;63793;57.632;18.292;2023-09-19T07:00:22;18.00;99.90
37844;DHT22;63793;57.632;18.292;2023-09-19T07:03:01;18.00;99.90
37844;DHT22;63793;57.632;18.292;2023-09-19T07:05:32;18.00;99.90
37844;DHT22;63793;57.632;18.292;2023-09-19T07:08:00;18.00;99.90
37844;DHT22;63793;57.632;18.292;2023-09-19T07:10:30;18.10;99.90
37844;DHT22;63793;57.632;18.292;2023-09-19T07:12:59;18.10;99.90
37844;DHT22;63793;57.632;18.292;2023-09-19T07:15:27;18.10;99.90
37844;DHT22;63793;57.632;18.292;2023-09-19T07:17:55;18.20;99.90
37844;DHT22;63793;57.632;18.292;2023-09-19T07:20:24;18.20;99.90
37844;DHT22;63793;57.632;18.292;2023-09-19T07:22:58;18.30;99.90
37844;DHT22;63793;57.632;18.292;2023-09-19T07:25:29;18.30;99.90
37844;DHT22;63793;57.632;18.292;2023-09-19T07:27:57;18.40;99.90
37844;DHT22;63793;57.632;18.292;2023-09-19T07:30:27;18.50;99.90
37844;DHT22;63793;57.632;18.292;2023-09-19T07:32:54;18.50;99.90
37844;DHT22;63793;57.632;18.292;2023-09-19T07:35:21;18.50;99.90
37844;DHT22;63793;57.632;18.292;2023-09-19T07:37:49;18.60;99.90
37844;DHT22;63793;57.632;18.292;2023-09-19T07:40:18;18.70;99.90
37844;DHT22;63793;57.632;18.292;2023-09-19T07:42:45;18.70;99.90
37844;DHT22;63793;57.632;18.292;2023-09-19T07:45:14;18.80;99.90
37844;DHT22;63793;57.632;18.292;2023-09-19T07:47:48;18.80;99.90
37844;DHT22;63793;57.632;18.292;2023-09-19T07:50:16;18.90;99.90
37844;DHT22;63793;57.632;18.292;2023-09-19T07:52:47;18.90;99.90
37844;DHT22;63793;57.632;18.292;2023-09-19T07:55:14;18.80;99.90
37844;DHT22;63793;57.632;18.292;2023-09-19T07:57:46;18.80;99.90
37844;DHT22;63793;57.632;18.292;2023-09-19T08:00:13;18.70;99.90
37844;DHT22;63793;57.632;18.292;2023-09-19T08:02:41;18.70;99.90
37844;DHT22;63793;57.632;18.292;2023-09-19T08:05:09;18.70;99.90
37844;DHT22;63793;57.632;18.292;2023-09-19T08:07:43;18.70;99.90
37844;DHT22;63793;57.632;18.292;2023-09-19T08:10:10;18.70;99.90
37844;DHT22;63793;57.632;18.292;2023-09-19T08:12:43;18.80;99.90
37844;DHT22;63793;57.632;18.292;2023-09-19T08:15:18;18.70;99.90
37844;DHT22;63793;57.632;18.292;2023-09-19T08:17:48;18.80;99.90
37844;DHT22;63793;57.632;18.292;2023-09-19T08:20:16;18.80;99.90
37844;DHT22;63793;57.632;18.292;2023-09-19T08:22:48;18.80;99.90
37844;DHT22;63793;57.632;18.292;2023-09-19T08:25:16;18.80;99.90
37844;DHT22;63793;57.632;18.292;2023-09-19T08:27:46;18.80;99.90
37844;DHT22;63793;57.632;18.292;2023-09-19T08:30:19;18.80;99.90
37844;DHT22;63793;57.632;18.292;2023-09-19T08:32:58;18.80;99.90
37844;DHT22;63793;57.632;18.292;2023-09-19T08:35:26;18.90;99.90
37844;DHT22;63793;57.632;18.292;2023-09-19T08:37:53;18.90;99.90
37844;DHT22;63793;57.632;18.292;2023-09-19T08:40:22;19.00;99.90
37844;DHT22;63793;57.632;18.292;2023-09-19T08:42:52;19.00;99.90
37844;DHT22;63793;57.632;18.292;2023-09-19T08:45:21;19.00;99.90
37844;DHT22;63793;57.632;18.292;2023-09-19T08:50:43;19.00;99.90
37844;DHT22;63793;57.632;18.292;2023-09-19T08:53:11;19.00;99.90
37844;DHT22;63793;57.632;18.292;2023-09-19T08:55:43;19.00;99.90
37844;DHT22;63793;57.632;18.292;2023-09-19T08:58:10;19.10;99.90
37844;DHT22;63793;57.632;18.292;2023-09-19T09:00:40;19.10;99.90
37844;DHT22;63793;57.632;18.292;2023-09-19T09:03:09;19.00;99.90
37844;DHT22;63793;57.632;18.292;2023-09-19T09:05:37;19.10;99.90
37844;DHT22;63793;57.632;18.292;2023-09-19T09:08:10;19.10;99.90
37844;DHT22;63793;57.632;18.292;2023-09-19T09:10:37;19.10;99.90
37844;DHT22;63793;57.632;18.292;2023-09-19T09:13:04;19.10;99.90
37844;DHT22;63793;57.632;18.292;2023-09-19T09:15:36;19.10;99.90
37844;DHT22;63793;57.632;18.292;2023-09-19T09:18:03;18.90;99.90
37844;DHT22;63793;57.632;18.292;2023-09-19T09:20:31;18.90;99.90
37844;DHT22;63793;57.632;18.292;2023-09-19T09:22:58;18.80;99.90
37844;DHT22;63793;57.632;18.292;2023-09-19T09:25:46;18.80;99.90
37844;DHT22;63793;57.632;18.292;2023-09-19T09:28:19;18.70;99.90
37844;DHT22;63793;57.632;18.292;2023-09-19T09:30:46;18.80;99.90
37844;DHT22;63793;57.632;18.292;2023-09-19T09:33:14;18.80;99.90
37844;DHT22;63793;57.632;18.292;2023-09-19T09:35:56;18.70;99.90
37844;DHT22;63793;57.632;18.292;2023-09-19T09:38:42;18.60;99.90
37844;DHT22;63793;57.632;18.292;2023-09-19T09:41:10;18.60;99.90
37844;DHT22;63793;57.632;18.292;2023-09-19T09:43:42;18.50;99.90
37844;DHT22;63793;57.632;18.292;2023-09-19T09:46:18;18.40;99.90
37844;DHT22;63793;57.632;18.292;2023-09-19T09:51:41;18.60;99.90
37844;DHT22;63793;57.632;18.292;2023-09-19T09:54:16;18.70;99.90
37844;DHT22;63793;57.632;18.292;2023-09-19T09:57:03;18.80;99.90
37844;DHT22;63793;57.632;18.292;2023-09-19T10:02:29;18.90;99.90
37844;DHT22;63793;57.632;18.292;2023-09-19T10:05:14;18.90;99.90
37844;DHT22;63793;57.632;18.292;2023-09-19T10:08:11;18.90;99.90
37844;DHT22;63793;57.632;18.292;2023-09-19T10:10:40;18.80;99.90
37844;DHT22;63793;57.632;18.292;2023-09-19T10:13:08;18.70;99.90
37844;DHT22;63793;57.632;18.292;2023-09-19T10:15:39;18.70;99.90
37844;DHT22;63793;57.632;18.292;2023-09-19T10:18:14;18.70;99.90
37844;DHT22;63793;57.632;18.292;2023-09-19T10:20:46;18.80;99.90
37844;DHT22;63793;57.632;18.292;2023-09-19T10:23:14;18.90;99.90
37844;DHT22;63793;57.632;18.292;2023-09-19T10:25:48;18.90;99.90
37844;DHT22;63793;57.632;18.292;2023-09-19T10:28:17;19.00;99.90
37844;DHT22;63793;57.632;18.292;2023-09-19T10:30:49;19.00;99.90
37844;DHT22;63793;57.632;18.292;2023-09-19T10:33:22;19.10;99.90
37844;DHT22;63793;57.632;18.292;2023-09-19T10:35:53;19.10;99.90
37844;DHT22;63793;57.632;18.292;2023-09-19T10:38:25;19.30;99.90
37844;DHT22;63793;57.632;18.292;2023-09-19T10:40:55;19.40;99.90
37844;DHT22;63793;57.632;18.292;2023-09-19T10:43:27;19.50;99.90
37844;DHT22;63793;57.632;18.292;2023-09-19T10:46:02;19.50;99.90
37844;DHT22;63793;57.632;18.292;2023-09-19T10:48:32;19.60;99.90
37844;DHT22;63793;57.632;18.292;2023-09-19T10:51:09;19.70;99.90
37844;DHT22;63793;57.632;18.292;2023-09-19T10:53:50;19.70;99.90
37844;DHT22;63793;57.632;18.292;2023-09-19T10:56:23;19.60;99.90
37844;DHT22;63793;57.632;18.292;2023-09-19T10:58:51;19.60;99.90
37844;DHT22;63793;57.632;18.292;2023-09-19T11:01:18;19.60;99.90
37844;DHT22;63793;57.632;18.292;2023-09-19T11:03:47;19.70;99.90
37844;DHT22;63793;57.632;18.292;2023-09-19T11:06:17;19.70;99.90
37844;DHT22;63793;57.632;18.292;2023-09-19T11:08:56;19.70;99.90
37844;DHT22;63793;57.632;18.292;2023-09-19T11:11:40;19.60;99.90
37844;DHT22;63793;57.632;18.292;2023-09-19T11:14:40;19.60;99.90
37844;DHT22;63793;57.632;18.292;2023-09-19T11:30:49;19.90;99.90
37844;DHT22;63793;57.632;18.292;2023-09-19T11:36:09;19.80;99.90
37844;DHT22;63793;57.632;18.292;2023-09-19T11:46:34;19.90;99.90
37844;DHT22;63793;57.632;18.292;2023-09-19T11:49:08;20.00;99.90
37844;DHT22;63793;57.632;18.292;2023-09-19T11:51:41;20.00;99.90
37844;DHT22;63793;57.632;18.292;2023-09-19T11:54:13;20.10;99.90
37844;DHT22;63793;57.632;18.292;2023-09-19T11:56:45;20.00;99.90
37844;DHT22;63793;57.632;18.292;2023-09-19T11:59:27;20.10;99.90
37844;DHT22;63793;57.632;18.292;2023-09-19T12:02:06;20.10;99.90
37844;DHT22;63793;57.632;18.292;2023-09-19T12:04:42;20.10;99.90
37844;DHT22;63793;57.632;18.292;2023-09-19T12:07:11;20.10;99.90
37844;DHT22;63793;57.632;18.292;2023-09-19T12:09:47;20.10;99.90
37844;DHT22;63793;57.632;18.292;2023-09-19T12:12:28;20.00;99.90
37844;DHT22;63793;57.632;18.292;2023-09-19T12:14:55;20.00;99.90
37844;DHT22;63793;57.632;18.292;2023-09-19T12:17:40;19.90;99.90
37844;DHT22;63793;57.632;18.292;2023-09-19T12:20:11;19.90;99.90
37844;DHT22;63793;57.632;18.292;2023-09-19T12:22:42;19.90;99.90
37844;DHT22;63793;57.632;18.292;2023-09-19T12:25:15;19.90;99.90
37844;DHT22;63793;57.632;18.292;2023-09-19T12:27:49;20.10;99.90
37844;DHT22;63793;57.632;18.292;2023-09-19T12:30:20;20.00;99.90
37844;DHT22;63793;57.632;18.292;2023-09-19T12:32:54;20.00;99.90
37844;DHT22;63793;57.632;18.292;2023-09-19T12:35:29;19.80;99.90
37844;DHT22;63793;57.632;18.292;2023-09-19T12:38:03;19.60;99.90
37844;DHT22;63793;57.632;18.292;2023-09-19T12:40:31;19.50;99.90
37844;DHT22;63793;57.632;18.292;2023-09-19T12:43:00;19.40;99.90
37844;DHT22;63793;57.632;18.292;2023-09-19T12:45:30;19.40;99.90
37844;DHT22;63793;57.632;18.292;2023-09-19T12:48:23;19.30;99.90
37844;DHT22;63793;57.632;18.292;2023-09-19T12:51:07;19.20;99.90
37844;DHT22;63793;57.632;18.292;2023-09-19T12:53:37;19.10;99.90
37844;DHT22;63793;57.632;18.292;2023-09-19T12:56:11;19.00;99.90
37844;DHT22;63793;57.632;18.292;2023-09-19T12:58:57;18.90;99.90
37844;DHT22;63793;57.632;18.292;2023-09-19T13:01:26;18.90;99.90
37844;DHT22;63793;57.632;18.292;2023-09-19T13:06:49;18.80;99.90
37844;DHT22;63793;57.632;18.292;2023-09-19T13:09:18;18.90;99.90
37844;DHT22;63793;57.632;18.292;2023-09-19T13:11:47;19.10;99.90
37844;DHT22;63793;57.632;18.292;2023-09-19T13:14:24;19.10;99.90
37844;DHT22;63793;57.632;18.292;2023-09-19T13:22:44;19.10;99.90
37844;DHT22;63793;57.632;18.292;2023-09-19T13:25:21;18.90;99.90
37844;DHT22;63793;57.632;18.292;2023-09-19T13:27:52;18.80;99.90
37844;DHT22;63793;57.632;18.292;2023-09-19T13:30:22;18.70;99.90
37844;DHT22;63793;57.632;18.292;2023-09-19T13:32:50;18.50;99.90
37844;DHT22;63793;57.632;18.292;2023-09-19T13:35:17;18.20;99.90
37844;DHT22;63793;57.632;18.292;2023-09-19T13:37:46;18.10;99.90
37844;DHT22;63793;57.632;18.292;2023-09-19T13:40:15;18.20;99.90
37844;DHT22;63793;57.632;18.292;2023-09-19T13:42:43;18.20;99.90
37844;DHT22;63793;57.632;18.292;2023-09-19T13:45:10;18.30;99.90
37844;DHT22;63793;57.632;18.292;2023-09-19T13:47:40;18.20;99.90
37844;DHT22;63793;57.632;18.292;2023-09-19T13:50:08;18.10;99.90
37844;DHT22;63793;57.632;18.292;2023-09-19T13:52:35;18.10;99.90
37844;DHT22;63793;57.632;18.292;2023-09-19T13:55:02;18.10;99.90
37844;DHT22;63793;57.632;18.292;2023-09-19T13:57:29;17.90;99.90
37844;DHT22;63793;57.632;18.292;2023-09-19T13:59:56;17.60;99.90
37844;DHT22;63793;57.632;18.292;2023-09-19T14:02:23;17.60;99.90
37844;DHT22;63793;57.632;18.292;2023-09-19T14:04:52;17.50;99.90
37844;DHT22;63793;57.632;18.292;2023-09-19T14:07:19;17.60;99.90
37844;DHT22;63793;57.632;18.292;2023-09-19T14:09:47;17.80;99.90
37844;DHT22;63793;57.632;18.292;2023-09-19T14:12:14;17.90;99.90
37844;DHT22;63793;57.632;18.292;2023-09-19T14:14:42;18.10;99.90
37844;DHT22;63793;57.632;18.292;2023-09-19T14:17:09;18.10;99.90
37844;DHT22;63793;57.632;18.292;2023-09-19T14:19:36;18.10;99.90
37844;DHT22;63793;57.632;18.292;2023-09-19T14:22:04;18.10;99.90
37844;DHT22;63793;57.632;18.292;2023-09-19T14:24:34;18.20;99.90
37844;DHT22;63793;57.632;18.292;2023-09-19T14:27:02;18.20;99.90
37844;DHT22;63793;57.632;18.292;2023-09-19T14:29:31;18.20;99.90
37844;DHT22;63793;57.632;18.292;2023-09-19T14:31:58;18.40;99.90
37844;DHT22;63793;57.632;18.292;2023-09-19T14:34:26;18.50;99.90
37844;DHT22;63793;57.632;18.292;2023-09-19T14:36:53;18.50;99.90
37844;DHT22;63793;57.632;18.292;2023-09-19T14:39:21;18.50;99.90
37844;DHT22;63793;57.632;18.292;2023-09-19T14:41:48;18.50;99.90
37844;DHT22;63793;57.632;18.292;2023-09-19T14:44:15;18.40;99.90
37844;DHT22;63793;57.632;18.292;2023-09-19T14:46:43;18.40;99.90
37844;DHT22;63793;57.632;18.292;2023-09-19T14:49:13;18.30;99.90
37844;DHT22;63793;57.632;18.292;2023-09-19T14:51:43;18.40;99.90
37844;DHT22;63793;57.632;18.292;2023-09-19T14:54:14;18.30;99.90
37844;DHT22;63793;57.632;18.292;2023-09-19T14:56:44;18.40;99.90
37844;DHT22;63793;57.632;18.292;2023-09-19T14:59:11;18.40;99.90
37844;DHT22;63793;57.632;18.292;2023-09-19T15:01:39;18.30;99.90
37844;DHT22;63793;57.632;18.292;2023-09-19T15:04:07;18.20;99.90
37844;DHT22;63793;57.632;18.292;2023-09-19T15:06:35;18.10;99.90
37844;DHT22;63793;57.632;18.292;2023-09-19T15:09:02;17.90;99.90
37844;DHT22;63793;57.632;18.292;2023-09-19T15:11:31;17.70;99.90
37844;DHT22;63793;57.632;18.292;2023-09-19T15:13:58;17.50;99.90
37844;DHT22;63793;57.632;18.292;2023-09-19T15:16:26;17.40;99.90
37844;DHT22;63793;57.632;18.292;2023-09-19T15:18:54;17.30;99.90
37844;DHT22;63793;57.632;18.292;2023-09-19T15:21:22;17.30;99.90
37844;DHT22;63793;57.632;18.292;2023-09-19T15:23:50;17.20;99.90
37844;DHT22;63793;57.632;18.292;2023-09-19T15:26:17;17.10;99.90
37844;DHT22;63793;57.632;18.292;2023-09-19T15:28:52;17.00;99.90
37844;DHT22;63793;57.632;18.292;2023-09-19T15:31:21;16.90;99.90
37844;DHT22;63793;57.632;18.292;2023-09-19T15:33:48;16.80;99.90
37844;DHT22;63793;57.632;18.292;2023-09-19T15:36:16;16.70;99.90
37844;DHT22;63793;57.632;18.292;2023-09-19T15:41:36;16.60;99.90
37844;DHT22;63793;57.632;18.292;2023-09-19T15:44:14;16.60;99.90
37844;DHT22;63793;57.632;18.292;2023-09-19T15:46:42;16.50;99.90
37844;DHT22;63793;57.632;18.292;2023-09-19T15:49:11;16.50;99.90
37844;DHT22;63793;57.632;18.292;2023-09-19T15:51:38;16.50;99.90
37844;DHT22;63793;57.632;18.292;2023-09-19T15:54:08;16.50;99.90
37844;DHT22;63793;57.632;18.292;2023-09-19T15:56:36;16.50;99.90
37844;DHT22;63793;57.632;18.292;2023-09-19T15:59:04;16.40;99.90
37844;DHT22;63793;57.632;18.292;2023-09-19T16:01:31;16.50;99.90
37844;DHT22;63793;57.632;18.292;2023-09-19T16:03:58;16.40;99.90
37844;DHT22;63793;57.632;18.292;2023-09-19T16:06:27;16.40;99.90
37844;DHT22;63793;57.632;18.292;2023-09-19T16:08:56;16.40;99.90
37844;DHT22;63793;57.632;18.292;2023-09-19T16:11:26;16.40;99.90
37844;DHT22;63793;57.632;18.292;2023-09-19T16:13:54;16.40;99.90
37844;DHT22;63793;57.632;18.292;2023-09-19T16:16:22;16.40;99.90
37844;DHT22;63793;57.632;18.292;2023-09-19T16:21:19;16.30;99.90
37844;DHT22;63793;57.632;18.292;2023-09-19T16:23:47;16.30;99.90
37844;DHT22;63793;57.632;18.292;2023-09-19T16:26:14;16.30;99.90
37844;DHT22;63793;57.632;18.292;2023-09-19T16:28:43;16.30;99.90